CheckWX is a tool to help pilots better visualize weather data.  It is not intended as a substitute for an official pre-flight weather briefing.

14:47:26 UTC

KBPT TAF
Jack Brooks Regional Airport
Beaumont/Port Arthur, Texas, USA
KBPT 231319Z 2313/2412 VRB03KT P6SM BKN250 FM231400 13006KT P6SM BKN250 FM231600 14014G19KT P6SM SCT060 FM240100 14008KT P6SM SCT250

Mar-23@
13:00 UTC

Mar-23 @ 13:00 UTC

Mar-23@
14:00 UTC

Mar-23 @ 14:00 UTC

KBPT 231319Z 2313/2412 VRB03KT P6SM BKN250

Expired

Wind
  • Variable at 3 KTS
Cloud Levels
  • Broken at 25,000' AGL

Mar-23@
14:00 UTC

Mar-23 @ 14:00 UTC

Mar-23@
16:00 UTC

Mar-23 @ 16:00 UTC

FM231400 13006KT P6SM BKN250

From

From Standard forecast or significant change

Wind
  • 130° at 6 KTS
Cloud Levels
  • Broken at 25,000' AGL

Mar-23@
16:00 UTC

Mar-23 @ 16:00 UTC

Mar-24@
01:00 UTC

Mar-24 @ 01:00 UTC

FM231600 14014G19KT P6SM SCT060

From

From Standard forecast or significant change

Wind
  • 140° at 14 KTS
  • {Gusting to 19 KTS
Cloud Levels
  • Scattered at 6,000' AGL

Mar-24@
01:00 UTC

Mar-24 @ 01:00 UTC

Mar-24@
12:00 UTC

Mar-24 @ 12:00 UTC

FM240100 14008KT P6SM SCT250

From

From Standard forecast or significant change

Wind
  • 140° at 8 KTS
Cloud Levels
  • Scattered at 25,000' AGL